^^

Nearby METAR Reports

METAR (Meteorological Aerodrome Report) are Airport generated local weather condition reports for use, predominantly by pilots, these reports are also used as part of compliment of data sets required for Chatteris Weathers prediction software - WxSim.

EGUN - Mildenhall Raf, United Kingdom
Distance from station: ESE 19mi, 31km
Updated: 17/07/2019 22:56
Overcast
Overcast
 Wind from W
Wind: W 7 mph , 11 km/h
Temperature: 20°C
Dew Point: 14°C
Humidity: 69%
Barometer: 1010.2 hPa
Clouds: Overcast
Visibility: 6 miles , 10 km
Cloud details: Few Clouds 1676 m
Overcast 2896 m
2019/07/17 21:56 EGUN 172156Z 28006KT 9999 FEW055 OVC095 20/14 A2983 RMK AO2A RAE03RAB26E44 SLP104 P0000 T01980139 $
EGSC - Cambridge, United Kingdom
Distance from station: SSE 20mi, 32km
Updated: 17/07/2019 17:50
NOT Current
Clear
Clear
 Wind from SSW
Wind: SSW 10 mph , 17 km/h
Temperature: 25°C
Dew Point: 9°C
Humidity: 36%
Barometer: 1011 hPa
Summary: Clear
Visibility: greater than 7 miles , 10 km
2019/07/17 16:50 EGSC 171650Z 20009KT 170V230 CAVOK 25/09 Q1011
 
EGUL - Lakenheath Raf, United Kingdom
Distance from station: E 22mi, 36km
Updated: 17/07/2019 23:00
Few Clouds
Few Clouds
 Wind from calm
Wind: Calm
Temperature: 19°C
Dew Point: 14°C
Humidity: 73%
Barometer: 1010.2 hPa
Clouds: Few Clouds
Visibility: 6 miles , 10 km
Cloud details: Few Clouds 152 m
Few Clouds 3048 m
2019/07/17 22:00 EGUL 172200Z AUTO 00000KT 9999 FEW005 FEW100 19/14 A2983 RMK AO2 RAE00 SLP104 $
EGXT - Wittering Raf, United Kingdom
Distance from station: WNW 24mi, 38km
Updated: 17/07/2019 22:50
Overcast
Overcast
 Wind from SW
Wind: SW 3 mph , 6 km/h
Temperature: 17°C
Dew Point: 14°C
Humidity: 83%
Barometer: 1010 hPa
Clouds: Overcast
Visibility: 6 miles , 10 km
Cloud details: Overcast 1524 m
2019/07/17 21:50 EGXT 172150Z AUTO 22003KT 9999 OVC050/// 17/14 Q1010
 
EGYH - Holbeach (aut), United Kingdom
Distance from station: N 27mi, 44km
Updated: 17/07/2019 15:50
NOT Current
Few Clouds
Few Clouds
 Wind from SW
Wind: SW 10 mph , 17 km/h
Temperature: 24°C
Dew Point: 14°C
Humidity: 54%
Barometer: 1011 hPa
Clouds: Few Clouds
Visibility: 6 miles , 10 km
Cloud details: Few Clouds 1219 m
2019/07/17 14:50 EGYH 171450Z 23009KT 9999 FEW040 24/14 Q1011 RMK BLU
EGSS - Stansted Airport, United Kingdom
Distance from station: SE 11mi, 18km
Updated: 17/07/2019 23:20
Light rain, Clear
Light rain, Clear
 Wind from WSW
Wind: WSW 7 mph , 11 km/h
Temperature: 19°C
Dew Point: 12°C
Humidity: 64%
Barometer: 1011 hPa
Summary: Light rain
Clouds: Clear
Visibility: 6 miles , 10 km
2019/07/17 22:20 EGSS 172220Z AUTO 25006KT 9999 -RA NCD 19/12 Q1011
 
EGGW - Luton Airport, United Kingdom
Distance from station: WSW 19mi, 31km
Updated: 17/07/2019 23:20
Clear
Clear
 Wind from SW
Wind: SW 7 mph , 11 km/h
Temperature: 18°C
Dew Point: 10°C
Humidity: 60%
Barometer: 1011 hPa
Clouds: Clear
Visibility: 6 miles , 10 km
2019/07/17 22:20 EGGW 172220Z AUTO 22006KT 9999 NCD 18/10 Q1011
EGLL - London/Heathrow, United Kingdom
Distance from station: SSW 41mi, 66km
Updated: 17/07/2019 23:20
Clear
Clear
 Wind from SW
Wind: SW 9 mph , 15 km/h
Temperature: 18°C
Dew Point: 12°C
Humidity: 68%
Barometer: 1012 hPa
Clouds: Clear
Visibility: 6 miles , 10 km
2019/07/17 22:20 EGLL 172220Z AUTO 22008KT 9999 NCD 18/12 Q1012
 
EGKK - London/Gatwick A, United Kingdom
Distance from station: S 60mi, 97km
Updated: 17/07/2019 23:20
Clear
Clear
 Wind from SW
Wind: SW 6 mph , 9 km/h
Temperature: 17°C
Dew Point: 14°C
Humidity: 83%
Barometer: 1012 hPa
Summary: Clear
Visibility: greater than 7 miles , 10 km
2019/07/17 22:20 EGKK 172220Z 22005KT CAVOK 17/14 Q1012
EGUY - Wyton Raf, United Kingdom
Distance from station: SW 11mi, 18km
Updated: 04/10/2015 09:50
NOT Current
Haze, Clear
Haze, Clear
 Wind from SSE
Wind: SSE 2 mph , 4 km/h
Temperature: 11°C
Dew Point: 7°C
Humidity: 77%
Barometer: 1014 hPa
Summary: Haze
Clouds: Clear
Visibility: 4 miles , 6 km
2015/10/04 08:50 EGUY 040850Z 15002KT 6000 HZ SKC 11/07 Q1014 WHT

Met Office METAR data link, decoding METAR data code.